Time;durP1;ratioP1;P1;durP2;ratioP2;P2;SDS_P1;SDS_P2;PMS_P1;PMS_P2;Temp;Humidity;BMP_temperature;BMP_pressure;BME280_temperature;BME280_humidity;BME280_pressure;Samples;Min_cycle;Max_cycle;Signal;HPM_P1;HPM_P2
2022/10/26 06:03:04;;;;;;;;;4.75;4.75;;;;;16.58;70.95;101281.22;3033733;22;46351;-77
2022/10/26 06:04:29;;;;;;;;;5.75;5.00;;;;;16.53;70.72;101281.44;3043197;22;45163;-77
2022/10/26 06:05:57;;;;;;;;;5.00;5.00;;;;;16.48;71.22;101286.97;3043832;22;45340;-77
2022/10/26 06:07:15;;;;;;;;;5.00;5.00;;;;;16.45;71.38;101283.59;3043878;22;45246;-77
2022/10/26 06:08:27;;;;;;;;;4.00;4.00;;;;;16.41;71.13;101289.09;3027561;22;47927;-77
2022/10/26 06:09:39;;;;;;;;;5.25;3.25;;;;;16.39;71.29;101282.13;3032886;22;44682;-78
2022/10/26 06:10:50;;;;;;;;;7.25;6.25;;;;;16.36;71.00;101279.63;3043697;22;45399;-77
2022/10/26 06:12:01;;;;;;;;;8.50;8.00;;;;;16.34;71.25;101292.09;3043678;22;45226;-77
2022/10/26 06:13:11;;;;;;;;;7.75;7.25;;;;;16.31;71.12;101291.31;3027470;22;46114;-77
2022/10/26 06:14:22;;;;;;;;;6.25;5.50;;;;;16.30;71.21;101288.72;3032680;22;45109;-77
2022/10/26 06:15:42;;;;;;;;;9.00;7.75;;;;;16.30;71.41;101291.38;3042558;22;47437;-77
2022/10/26 06:17:04;;;;;;;;;9.25;8.75;;;;;16.27;71.18;101288.91;3043774;22;44576;-77
2022/10/26 06:18:26;;;;;;;;;9.25;8.25;;;;;16.25;71.78;101290.78;3043736;22;46445;-77
2022/10/26 06:19:53;;;;;;;;;10.25;8.00;;;;;16.19;71.70;101284.84;3044018;22;45286;-77
2022/10/26 06:21:06;;;;;;;;;10.00;9.50;;;;;16.16;71.54;101286.75;3043833;22;46277;-77
2022/10/26 06:22:38;;;;;;;;;8.50;8.50;;;;;16.14;71.75;101288.63;3043849;22;44667;-77
2022/10/26 06:23:57;;;;;;;;;11.50;8.50;;;;;16.11;71.59;101284.31;3027364;22;47051;-77
2022/10/26 06:25:26;;;;;;;;;9.25;7.50;;;;;16.09;71.65;101288.84;3027058;22;44649;-77
2022/10/26 06:26:39;;;;;;;;;9.50;8.00;;;;;16.10;71.72;101287.06;3036551;22;45769;-77
2022/10/26 06:27:58;;;;;;;;;9.25;7.50;;;;;16.11;71.90;101297.59;3044073;22;45301;-77
2022/10/26 06:29:31;;;;;;;;;7.75;6.50;;;;;16.10;71.98;101295.84;3027275;22;47314;-76
2022/10/26 06:30:42;;;;;;;;;9.50;8.00;;;;;16.11;71.64;101302.88;3016569;22;45213;-77
2022/10/26 06:31:52;;;;;;;;;7.75;7.75;;;;;16.12;71.89;101299.31;3032271;22;45136;-77
2022/10/26 06:33:03;;;;;;;;;9.25;7.25;;;;;16.13;72.01;101306.31;3042536;22;45223;-77
2022/10/26 06:34:31;;;;;;;;;8.25;6.50;;;;;16.15;71.76;101309.75;3042851;22;45581;-76
2022/10/26 06:35:56;;;;;;;;;10.25;7.00;;;;;16.18;71.82;101311.41;3027717;22;45263;-77
2022/10/26 06:37:07;;;;;;;;;5.75;5.50;;;;;16.17;71.71;101313.19;3035554;22;45481;-76
2022/10/26 06:38:21;;;;;;;;;7.00;7.00;;;;;16.18;71.84;101314.91;3027865;22;45123;-77
2022/10/26 06:39:37;;;;;;;;;7.75;6.75;;;;;16.20;71.99;101321.00;3017736;22;47265;-77
2022/10/26 06:40:51;;;;;;;;;10.50;7.25;;;;;16.23;72.14;101324.44;3034488;22;45266;-77
2022/10/26 06:42:02;;;;;;;;;8.75;8.50;;;;;16.25;71.76;101325.25;3043054;22;46986;-77
2022/10/26 06:43:18;;;;;;;;;5.50;4.75;;;;;16.26;71.89;101326.94;3042994;22;44585;-77
2022/10/26 06:44:29;;;;;;;;;7.50;6.50;;;;;16.27;71.82;101329.53;3043628;22;45442;-77
2022/10/26 06:45:44;;;;;;;;;8.25;6.50;;;;;16.29;71.88;101334.78;3043430;22;44647;-77
2022/10/26 06:47:16;;;;;;;;;8.50;8.50;;;;;16.31;71.42;101335.56;3027082;22;48605;-77
2022/10/26 06:48:28;;;;;;;;;7.50;6.50;;;;;16.31;71.81;101330.25;3036800;22;45278;-77
2022/10/26 06:49:48;;;;;;;;;8.25;6.75;;;;;16.32;71.99;101342.59;3043424;22;46139;-77
2022/10/26 06:50:58;;;;;;;;;8.25;6.25;;;;;16.31;71.83;101340.84;3043733;22;44644;-77
2022/10/26 06:52:41;;;;;;;;;8.25;7.25;;;;;16.32;71.73;101353.19;3043801;22;45316;-77
2022/10/26 06:54:04;;;;;;;;;3.75;3.25;;;;;16.31;71.82;101349.69;3043751;22;45134;-77
2022/10/26 06:55:15;;;;;;;;;5.50;5.25;;;;;16.31;71.86;101348.81;3043739;22;45465;-77
2022/10/26 06:56:26;;;;;;;;;8.75;7.75;;;;;16.31;71.76;101348.81;3043304;22;45292;-77
2022/10/26 06:57:38;;;;;;;;;10.00;7.50;;;;;16.33;71.68;101344.28;3043623;22;45310;-77
2022/10/26 06:58:51;;;;;;;;;10.00;6.50;;;;;16.34;71.87;101345.16;3043939;22;44647;-77
2022/10/26 07:00:19;;;;;;;;;7.50;7.50;;;;;16.35;71.75;101352.16;3043165;22;45185;-77
2022/10/26 07:01:29;;;;;;;;;7.00;6.75;;;;;16.35;71.58;101355.69;3043887;22;45238;-77
2022/10/26 07:02:39;;;;;;;;;6.50;5.25;;;;;16.36;71.73;101364.50;3042563;22;48946;-77
2022/10/26 07:03:49;;;;;;;;;7.00;6.50;;;;;16.37;71.63;101369.72;3043902;22;45221;-77
2022/10/26 07:05:00;;;;;;;;;8.25;7.50;;;;;16.38;71.80;101371.47;3027102;22;47010;-77
2022/10/26 07:06:10;;;;;;;;;8.25;7.75;;;;;16.39;71.89;101375.84;3032237;22;45247;-78
2022/10/26 07:07:23;;;;;;;;;7.75;7.00;;;;;16.40;71.81;101368.72;3041399;22;46958;-77
2022/10/26 07:08:34;;;;;;;;;7.25;5.50;;;;;16.42;71.68;101375.69;3027403;22;44614;-77
2022/10/26 07:09:44;;;;;;;;;6.75;6.50;;;;;16.44;71.91;101372.09;3032740;22;45397;-77
2022/10/26 07:10:55;;;;;;;;;7.00;6.75;;;;;16.46;71.50;101383.50;3041470;22;45267;-77
2022/10/26 07:12:06;;;;;;;;;10.00;8.25;;;;;16.47;72.04;101377.28;3042424;22;49211;-77
2022/10/26 07:13:16;;;;;;;;;8.25;8.25;;;;;16.48;71.63;101378.97;3041817;22;45318;-77
2022/10/26 07:14:26;;;;;;;;;7.75;5.25;;;;;16.50;71.69;101382.41;3042980;22;45282;-77
2022/10/26 07:15:38;;;;;;;;;9.75;9.50;;;;;16.53;71.95;101387.56;3042033;22;45299;-78
2022/10/26 07:16:48;;;;;;;;;7.75;7.25;;;;;16.57;72.18;101390.97;3027004;22;47100;-77
2022/10/26 07:17:59;;;;;;;;;10.00;8.75;;;;;16.58;71.66;101387.34;3031448;22;45228;-77
2022/10/26 07:19:09;;;;;;;;;10.00;7.75;;;;;16.60;71.64;101391.66;3027381;22;47029;-77
2022/10/26 07:20:20;;;;;;;;;7.50;6.75;;;;;16.65;71.66;101392.28;3032300;22;44661;-77
2022/10/26 07:21:31;;;;;;;;;7.25;7.25;;;;;16.70;71.59;101394.72;3043568;22;45570;-77
2022/10/26 07:22:41;;;;;;;;;9.25;7.00;;;;;16.74;71.46;101393.63;3042427;22;44604;-77
2022/10/26 07:23:54;;;;;;;;;10.50;9.00;;;;;16.80;71.66;101400.44;3027205;22;46288;-77
2022/10/26 07:25:06;;;;;;;;;9.25;9.25;;;;;16.84;71.43;101399.34;3017055;22;45276;-77
2022/10/26 07:26:17;;;;;;;;;9.00;8.25;;;;;16.85;71.46;101403.75;3015309;22;48119;-77
2022/10/26 07:27:27;;;;;;;;;8.25;5.75;;;;;16.88;71.04;101402.72;3016035;22;45247;-77
2022/10/26 07:28:37;;;;;;;;;6.25;4.50;;;;;16.92;71.00;101403.41;3030868;22;45346;-77
2022/10/26 07:29:48;;;;;;;;;7.50;7.00;;;;;16.98;70.95;101397.81;3043298;22;45232;-76
2022/10/26 07:30:58;;;;;;;;;8.25;8.00;;;;;17.02;71.01;101407.34;3042537;22;49355;-77
2022/10/26 07:32:08;;;;;;;;;7.50;7.50;;;;;17.08;70.79;101400.88;3043369;22;45248;-77
2022/10/26 07:33:19;;;;;;;;;8.25;7.00;;;;;17.13;70.93;101416.56;3043282;22;46381;-77
2022/10/26 07:34:29;;;;;;;;;7.75;6.25;;;;;17.17;70.79;101416.38;3044574;22;44657;-77
2022/10/26 07:35:40;;;;;;;;;6.50;6.50;;;;;17.22;70.37;101410.81;3027115;22;47028;-77
2022/10/26 07:36:51;;;;;;;;;8.25;5.50;;;;;17.27;70.38;101423.88;3032532;22;45291;-77
2022/10/26 07:38:03;;;;;;;;;8.25;8.00;;;;;17.32;70.62;101412.09;3041845;22;46999;-77
2022/10/26 07:39:13;;;;;;;;;10.50;7.50;;;;;17.38;70.38;101423.34;3042598;22;45132;-77
2022/10/26 07:40:24;;;;;;;;;8.50;8.50;;;;;17.40;70.53;101421.47;3042904;22;45381;-77
2022/10/26 07:41:34;;;;;;;;;9.50;9.50;;;;;17.46;70.14;101418.47;3042084;22;44601;-76
2022/10/26 07:42:45;;;;;;;;;10.00;9.75;;;;;17.48;70.15;101429.88;3041457;22;45483;-77
2022/10/26 07:43:55;;;;;;;;;11.25;10.25;;;;;17.51;70.00;101421.75;3043307;22;45189;-77
2022/10/26 07:45:06;;;;;;;;;13.25;11.50;;;;;17.51;70.13;101432.38;3042281;22;46040;-77
2022/10/26 07:46:17;;;;;;;;;11.00;10.00;;;;;17.57;69.83;101420.59;3042944;22;45258;-77
2022/10/26 07:47:27;;;;;;;;;8.00;7.50;;;;;17.61;69.54;101427.47;3043806;22;45433;-77
2022/10/26 07:48:38;;;;;;;;;7.50;7.50;;;;;17.65;69.29;101428.16;3043673;22;44689;-76
2022/10/26 07:49:48;;;;;;;;;13.00;10.00;;;;;17.66;69.50;101430.75;3043020;22;45338;-77
2022/10/26 07:51:00;;;;;;;;;9.25;8.75;;;;;17.68;69.41;101430.66;3042164;22;45303;-77
2022/10/26 07:52:11;;;;;;;;;7.25;6.00;;;;;17.71;69.56;101438.47;3038236;22;47980;-77
2022/10/26 07:53:21;;;;;;;;;7.75;7.75;;;;;17.73;69.37;101439.25;3032622;22;45244;-76
2022/10/26 07:54:31;;;;;;;;;9.25;8.50;;;;;17.74;69.05;101433.00;3042905;22;47774;-76
2022/10/26 07:55:42;;;;;;;;;6.75;6.75;;;;;17.79;69.13;101439.88;3027413;22;45448;-77
2022/10/26 07:56:52;;;;;;;;;7.25;7.25;;;;;17.80;68.88;101441.59;3032312;22;46049;-76
2022/10/26 07:58:02;;;;;;;;;9.25;8.50;;;;;17.81;68.99;101444.16;3027710;22;45234;-77
2022/10/26 07:59:13;;;;;;;;;8.50;7.75;;;;;17.82;68.74;101443.22;3031903;22;47357;-77
2022/10/26 08:00:24;;;;;;;;;7.25;6.25;;;;;17.83;68.80;101444.09;3043865;22;45204;-77
2022/10/26 08:01:35;;;;;;;;;10.50;8.50;;;;;17.84;68.88;101443.13;3027569;22;46872;-77
2022/10/26 08:02:46;;;;;;;;;9.75;8.75;;;;;17.83;69.22;101450.25;3031959;22;45268;-77
2022/10/26 08:03:56;;;;;;;;;9.00;7.00;;;;;17.85;68.72;101455.50;3043451;22;45394;-77
2022/10/26 08:05:07;;;;;;;;;8.50;6.75;;;;;17.86;68.42;101449.22;3044469;22;45255;-77
2022/10/26 08:06:17;;;;;;;;;3.50;3.50;;;;;17.89;68.82;101454.41;3043569;22;45312;-76
2022/10/26 08:07:27;;;;;;;;;5.00;5.00;;;;;17.91;68.39;101449.00;3028019;22;45255;-77
2022/10/26 08:08:38;;;;;;;;;4.75;4.75;;;;;17.90;68.95;101450.81;3032621;22;45194;-76
2022/10/26 08:09:48;;;;;;;;;6.50;4.25;;;;;17.90;68.92;101448.16;3044737;22;45083;-76
2022/10/26 08:10:58;;;;;;;;;4.00;4.00;;;;;17.92;68.47;101450.72;3027316;22;46882;-77
2022/10/26 08:12:09;;;;;;;;;7.75;4.00;;;;;17.94;68.37;101456.81;3032295;22;45352;-77
2022/10/26 08:13:19;;;;;;;;;5.00;3.50;;;;;17.97;68.67;101454.00;3043466;22;45382;-77
2022/10/26 08:14:30;;;;;;;;;4.25;3.75;;;;;17.98;68.88;101456.56;3043950;22;45254;-77
2022/10/26 08:15:40;;;;;;;;;7.25;4.25;;;;;17.98;68.53;101461.88;3043524;22;46084;-77
2022/10/26 08:16:51;;;;;;;;;4.00;4.00;;;;;17.99;68.64;101463.63;3027546;22;44631;-77
2022/10/26 08:18:01;;;;;;;;;4.75;4.00;;;;;18.00;68.51;101465.31;3032084;22;45488;-77
2022/10/26 08:19:12;;;;;;;;;5.00;3.00;;;;;18.05;68.19;101472.22;3028025;22;44610;-77
2022/10/26 08:20:22;;;;;;;;;5.50;4.25;;;;;18.07;68.60;101475.66;3031852;22;45220;-77
2022/10/26 08:21:32;;;;;;;;;5.50;5.00;;;;;18.07;68.09;101478.31;3043207;22;45353;-77
2022/10/26 08:22:43;;;;;;;;;4.00;3.50;;;;;18.07;68.21;101480.97;3041178;22;53588;-77
2022/10/26 08:23:53;;;;;;;;;4.75;4.00;;;;;18.07;68.21;101478.31;3043252;22;45093;-77
2022/10/26 08:25:03;;;;;;;;;3.00;3.00;;;;;18.09;68.44;101477.28;3043194;22;49261;-77
2022/10/26 08:26:14;;;;;;;;;4.00;4.00;;;;;18.08;68.11;101482.66;3043042;22;45251;-77
2022/10/26 08:27:25;;;;;;;;;3.00;3.00;;;;;18.08;68.32;101482.66;3027003;22;48243;-77
2022/10/26 08:28:35;;;;;;;;;4.75;3.50;;;;;18.08;68.04;101480.00;3032472;22;45298;-77
2022/10/26 08:29:45;;;;;;;;;7.00;4.00;;;;;18.11;68.09;101479.84;3043643;22;45177;-77
2022/10/26 08:30:56;;;;;;;;;4.00;4.00;;;;;18.15;67.98;101488.53;3043872;22;45522;-77
2022/10/26 08:32:07;;;;;;;;;3.50;3.00;;;;;18.18;68.30;101483.91;3042563;22;47017;-77
2022/10/26 08:33:17;;;;;;;;;3.25;3.25;;;;;18.17;68.33;101484.84;3027380;22;45267;-77
2022/10/26 08:34:27;;;;;;;;;5.00;4.25;;;;;18.20;67.76;101484.69;3031989;22;45335;-77
2022/10/26 08:35:38;;;;;;;;;4.00;3.25;;;;;18.23;67.95;101486.34;3043430;22;45222;-77
2022/10/26 08:36:49;;;;;;;;;4.50;4.25;;;;;18.24;67.66;101488.06;3043558;22;46344;-77
2022/10/26 08:37:59;;;;;;;;;3.50;3.25;;;;;18.26;68.03;101490.63;3027305;22;45358;-77
2022/10/26 08:39:09;;;;;;;;;4.00;2.25;;;;;18.27;67.92;101487.06;3031859;22;46665;-77
2022/10/26 08:40:35;;;;;;;;;6.00;4.00;;;;;18.28;67.96;101494.94;3043996;22;45291;-77
2022/10/26 08:41:51;;;;;;;;;4.00;4.00;;;;;18.32;68.11;101495.66;3042742;22;47459;-77
2022/10/26 08:43:15;;;;;;;;;4.50;4.00;;;;;18.35;67.40;101498.13;3037269;22;44749;-77
2022/10/26 08:44:48;;;;;;;;;4.00;4.00;;;;;18.37;67.81;101493.56;3035629;22;45389;-77
2022/10/26 08:46:20;;;;;;;;;3.75;3.75;;;;;18.38;67.66;101492.63;3027427;22;45232;-77
2022/10/26 08:47:37;;;;;;;;;4.25;3.00;;;;;18.40;67.61;101493.41;3035667;22;46664;-77
2022/10/26 08:48:55;;;;;;;;;4.25;3.00;;;;;18.41;67.38;101492.47;3044150;22;45250;-77
2022/10/26 08:50:11;;;;;;;;;4.25;4.25;;;;;18.43;67.48;101490.59;3041888;22;48041;-77
2022/10/26 08:51:29;;;;;;;;;4.50;4.25;;;;;18.48;67.61;101494.78;3042687;22;45577;-77
2022/10/26 08:53:00;;;;;;;;;5.25;4.00;;;;;18.50;67.11;101493.75;3026983;22;47152;-77
2022/10/26 08:54:20;;;;;;;;;3.75;3.75;;;;;18.53;67.53;101492.75;3037176;22;44523;-77
2022/10/26 08:55:45;;;;;;;;;3.00;2.00;;;;;18.54;67.18;101505.13;3027257;22;48020;-77
2022/10/26 08:57:04;;;;;;;;;6.25;3.50;;;;;18.57;67.59;101509.41;3019383;22;45170;-77
2022/10/26 08:58:20;;;;;;;;;3.75;3.75;;;;;18.57;67.48;101507.59;3033701;22;45543;-77
2022/10/26 08:59:39;;;;;;;;;2.25;2.25;;;;;18.57;67.42;101515.56;3042541;22;44844;-77
2022/10/26 09:00:50;;;;;;;;;3.50;3.00;;;;;18.57;67.33;101512.09;3042864;22;45404;-77
2022/10/26 09:02:01;;;;;;;;;6.50;3.25;;;;;18.55;67.38;101518.34;3027493;22;44712;-77
2022/10/26 09:03:14;;;;;;;;;3.00;3.00;;;;;18.57;67.35;101526.22;3031737;22;45492;-77
2022/10/26 09:04:27;;;;;;;;;3.00;3.00;;;;;18.58;67.17;101516.44;3043353;22;45343;-77
2022/10/26 09:05:48;;;;;;;;;2.50;2.50;;;;;18.61;67.06;101525.13;3027006;22;48357;-77
2022/10/26 09:07:11;;;;;;;;;4.00;3.00;;;;;18.65;67.14;101523.16;3026222;22;45314;-77
2022/10/26 09:08:40;;;;;;;;;4.50;4.25;;;;;18.67;67.17;101524.78;3035219;22;45249;-77
2022/10/26 09:10:03;;;;;;;;;3.50;3.00;;;;;18.65;66.92;101520.50;3043581;22;45298;-77
2022/10/26 09:11:31;;;;;;;;;5.00;3.00;;;;;18.65;66.91;101518.69;3043321;22;46388;-77
2022/10/26 09:13:23;;;;;;;;;2.50;2.50;;;;;18.64;67.10;101516.97;3044083;22;45294;-77
2022/10/26 09:14:52;;;;;;;;;4.00;3.25;;;;;18.67;66.74;101526.59;3043913;22;45336;-77
2022/10/26 09:16:21;;;;;;;;;5.75;4.00;;;;;18.70;67.46;101522.88;3043839;22;45219;-77
2022/10/26 09:17:37;;;;;;;;;1.25;1.25;;;;;18.73;67.20;101530.72;3042949;22;46118;-77
2022/10/26 09:18:53;;;;;;;;;2.25;2.25;;;;;18.71;67.35;101529.94;3027262;22;44633;-77
2022/10/26 09:20:40;;;;;;;;;3.00;2.50;;;;;18.73;66.61;101533.38;3032386;22;47525;-77
2022/10/26 09:21:50;;;;;;;;;7.00;3.00;;;;;18.76;67.09;101541.22;3043398;22;45282;-77
2022/10/26 09:23:27;;;;;;;;;6.00;3.50;;;;;18.78;66.68;101536.66;3043458;22;45779;-77
2022/10/26 09:24:42;;;;;;;;;5.00;3.00;;;;;18.80;66.89;101537.41;3041313;22;45372;-77
2022/10/26 09:26:00;;;;;;;;;3.00;3.00;;;;;18.83;66.71;101539.91;3042508;22;46491;-77
2022/10/26 09:27:18;;;;;;;;;4.00;3.50;;;;;18.84;66.94;101536.28;3043267;22;45205;-77
2022/10/26 09:28:34;;;;;;;;;4.50;2.00;;;;;18.86;66.82;101531.78;3027059;22;47987;-77
2022/10/26 09:29:44;;;;;;;;;3.00;2.25;;;;;18.87;67.05;101538.78;3033307;22;45264;-77
2022/10/26 09:30:57;;;;;;;;;3.75;3.75;;;;;18.91;66.92;101533.31;3043279;22;45250;-77
2022/10/26 09:32:24;;;;;;;;;3.00;2.50;;;;;18.92;66.88;101535.00;3042844;22;45274;-77
2022/10/26 09:33:38;;;;;;;;;4.00;4.00;;;;;18.93;66.84;101520.75;3043291;22;46582;-77
2022/10/26 09:34:53;;;;;;;;;2.75;2.75;;;;;18.95;66.40;101529.50;3043409;22;44620;-77
2022/10/26 09:36:09;;;;;;;;;6.50;3.25;;;;;18.97;66.64;101543.59;3043124;22;46305;-77
2022/10/26 09:37:27;;;;;;;;;7.00;4.00;;;;;18.98;66.65;101545.34;3028016;22;44590;-77
2022/10/26 09:38:55;;;;;;;;;3.00;3.00;;;;;19.00;66.64;101543.44;3033047;22;46935;-77
2022/10/26 09:40:29;;;;;;;;;4.50;2.25;;;;;19.03;66.25;101550.41;3043599;22;44620;-77
2022/10/26 09:41:44;;;;;;;;;4.00;2.50;;;;;19.06;66.32;101551.06;3027923;22;47477;-77
2022/10/26 09:43:05;;;;;;;;;5.00;3.00;;;;;19.08;66.23;101551.88;3033507;22;44626;-77
2022/10/26 09:44:26;;;;;;;;;3.25;3.25;;;;;19.11;66.32;101550.84;3043340;22;45662;-77
2022/10/26 09:45:40;;;;;;;;;3.00;2.50;;;;;19.15;66.27;101559.50;3041808;22;44697;-78
2022/10/26 09:47:31;;;;;;;;;4.50;3.00;;;;;19.19;66.12;101553.06;3041348;22;45388;-78
2022/10/26 09:48:54;;;;;;;;;3.25;2.25;;;;;19.20;66.05;101552.13;3027584;22;45599;-77
2022/10/26 09:50:11;;;;;;;;;3.00;3.00;;;;;19.22;65.88;101547.56;3034778;22;45634;-77
2022/10/26 09:51:22;;;;;;;;;6.25;4.75;;;;;19.24;66.04;101556.34;3044175;22;45229;-77
2022/10/26 09:52:32;;;;;;;;;0.25;0.25;;;;;19.27;65.63;101555.31;3043823;22;46136;-77
2022/10/26 09:53:43;;;;;;;;;3.25;2.00;;;;;19.27;65.91;101556.16;3043786;22;45226;-77
2022/10/26 09:54:54;;;;;;;;;3.00;3.00;;;;;19.29;65.88;101558.75;3044103;22;45321;-77
2022/10/26 09:56:10;;;;;;;;;3.00;3.00;;;;;19.31;65.70;101556.88;3044077;22;45108;-77
2022/10/26 09:57:21;;;;;;;;;3.00;3.00;;;;;19.33;65.69;101560.31;3043888;22;45298;-77
2022/10/26 09:58:36;;;;;;;;;2.25;2.25;;;;;19.36;66.05;101553.94;3044114;22;45148;-77
2022/10/26 09:59:48;;;;;;;;;2.25;2.25;;;;;19.37;65.61;101555.63;3043921;22;45623;-77
2022/10/26 10:00:59;;;;;;;;;3.00;2.00;;;;;19.38;66.04;101573.38;3044183;22;45409;-77
2022/10/26 10:02:42;;;;;;;;;2.00;2.00;;;;;19.39;66.21;101575.06;3043227;22;45726;-77
2022/10/26 10:04:19;;;;;;;;;4.00;3.25;;;;;19.38;66.32;101582.22;3044138;22;45203;-77
2022/10/26 10:05:34;;;;;;;;;4.25;2.25;;;;;19.38;65.94;101576.03;3042349;22;47029;-77
2022/10/26 10:07:08;;;;;;;;;2.00;2.00;;;;;19.36;65.95;101581.44;3043809;22;45128;-77
2022/10/26 10:08:23;;;;;;;;;2.50;1.50;;;;;19.38;65.55;101584.03;3042904;22;45304;-77
2022/10/26 10:09:34;;;;;;;;;2.00;2.00;;;;;19.41;65.98;101586.53;3026908;22;45268;-77
2022/10/26 10:10:54;;;;;;;;;2.00;2.00;;;;;19.43;65.62;101595.28;3032016;22;48207;-77
2022/10/26 10:12:19;;;;;;;;;2.00;2.00;;;;;19.47;65.72;101588.81;3027720;22;45183;-77
2022/10/26 10:13:32;;;;;;;;;5.50;2.00;;;;;19.48;65.22;101587.88;3019519;22;47172;-77
2022/10/26 10:14:55;;;;;;;;;2.00;2.00;;;;;19.49;65.43;101597.59;3017419;22;45413;-78
2022/10/26 10:16:19;;;;;;;;;4.25;2.50;;;;;19.47;65.64;101588.81;3034998;22;46318;-78
2022/10/26 10:17:29;;;;;;;;;2.00;2.00;;;;;19.44;65.13;101597.84;3043840;22;45235;-77
2022/10/26 10:18:41;;;;;;;;;3.25;3.25;;;;;19.47;65.45;101599.47;3043779;22;45594;-77
2022/10/26 10:19:51;;;;;;;;;3.50;2.00;;;;;19.48;65.01;101595.88;3044002;22;45285;-77
2022/10/26 10:21:04;;;;;;;;;5.00;1.75;;;;;19.52;65.48;101593.88;3042342;22;47978;-77
2022/10/26 10:22:14;;;;;;;;;2.00;1.00;;;;;19.55;65.35;101602.56;3042680;22;45651;-77
2022/10/26 10:23:31;;;;;;;;;2.25;2.25;;;;;19.58;65.21;101601.53;3027160;22;48055;-77
2022/10/26 10:24:51;;;;;;;;;1.00;1.00;;;;;19.60;65.57;101604.13;3032064;22;45239;-77
2022/10/26 10:26:12;;;;;;;;;4.00;2.25;;;;;19.51;65.33;101602.81;3043917;22;45547;-77
2022/10/26 10:27:23;;;;;;;;;3.00;2.00;;;;;19.50;65.33;101607.31;3028204;22;45232;-77
2022/10/26 10:28:34;;;;;;;;;2.00;1.00;;;;;19.54;65.23;101610.66;3032931;22;46143;-77
2022/10/26 10:29:48;;;;;;;;;2.00;2.00;;;;;19.58;65.51;101611.34;3043763;22;45234;-77
2022/10/26 10:31:05;;;;;;;;;2.00;1.25;;;;;19.58;64.95;101612.22;3044093;22;46142;-77
2022/10/26 10:32:21;;;;;;;;;2.50;1.00;;;;;19.61;65.05;101609.34;3027714;22;45231;-77
2022/10/26 10:33:37;;;;;;;;;3.25;1.50;;;;;19.64;64.79;101613.63;3033882;22;45386;-77
2022/10/26 10:34:49;;;;;;;;;2.50;1.25;;;;;19.60;65.18;101615.63;3044053;22;45305;-77
2022/10/26 10:36:00;;;;;;;;;2.25;2.00;;;;;19.58;65.27;101617.53;3044330;22;45350;-76
2022/10/26 10:37:41;;;;;;;;;2.25;1.25;;;;;19.60;64.70;101617.44;3044704;22;45239;-77
2022/10/26 10:38:53;;;;;;;;;2.25;1.00;;;;;19.61;64.83;101625.34;3023566;22;47187;-77
2022/10/26 10:40:20;;;;;;;;;3.00;3.00;;;;;19.63;64.70;101615.44;3027250;22;45263;-77
2022/10/26 10:41:36;;;;;;;;;3.50;2.25;;;;;19.64;64.61;101621.63;3036051;22;45389;-77
2022/10/26 10:42:49;;;;;;;;;2.00;2.00;;;;;19.67;64.25;101616.13;3044478;22;45243;-77
2022/10/26 10:44:14;;;;;;;;;0.75;0.50;;;;;19.70;64.75;101617.78;3043421;22;46215;-77
2022/10/26 10:45:28;;;;;;;;;2.50;1.00;;;;;19.72;64.45;101614.06;3027946;22;44613;-77
2022/10/26 10:46:39;;;;;;;;;2.00;1.00;;;;;19.76;64.23;101622.72;3033549;22;45486;-77
2022/10/26 10:48:11;;;;;;;;;3.75;1.75;;;;;19.74;64.34;101619.28;3043698;22;44570;-77
2022/10/26 10:49:27;;;;;;;;;2.00;1.00;;;;;19.72;64.83;101616.72;3027740;22;47207;-77
2022/10/26 10:50:54;;;;;;;;;1.00;1.00;;;;;19.69;64.68;101622.25;3034543;22;45128;-77
2022/10/26 10:52:04;;;;;;;;;2.00;2.00;;;;;19.70;64.64;101615.97;3043829;22;45459;-76
2022/10/26 10:53:40;;;;;;;;;4.25;2.00;;;;;19.73;64.43;101623.78;3043912;22;45155;-77
2022/10/26 10:55:09;;;;;;;;;2.50;2.00;;;;;19.75;64.25;101624.56;3030938;22;45325;-76
2022/10/26 10:56:32;;;;;;;;;1.75;1.75;;;;;19.78;64.87;101627.03;3044184;22;45180;-77
2022/10/26 10:58:00;;;;;;;;;1.25;1.25;;;;;19.85;64.38;101632.03;3044467;22;46183;-77
2022/10/26 10:59:19;;;;;;;;;4.00;4.00;;;;;19.89;64.35;101631.75;3027655;22;44680;-77
2022/10/26 11:00:34;;;;;;;;;4.00;2.00;;;;;19.91;64.07;101631.66;3034369;22;45367;-77
2022/10/26 11:02:09;;;;;;;;;5.00;2.00;;;;;19.94;64.23;101630.59;3043225;22;44633;-77
2022/10/26 11:03:20;;;;;;;;;1.50;1.50;;;;;19.95;63.93;101635.00;3027228;22;47115;-77
2022/10/26 11:04:33;;;;;;;;;1.25;1.25;;;;;19.95;64.14;101635.00;3032738;22;44641;-77
2022/10/26 11:05:56;;;;;;;;;1.25;1.25;;;;;19.95;64.18;101640.34;3027861;22;46086;-77
2022/10/26 11:07:10;;;;;;;;;2.00;1.00;;;;;19.88;64.01;101634.50;3033629;22;45299;-77
2022/10/26 11:08:29;;;;;;;;;2.75;2.00;;;;;19.84;63.64;101639.16;3042701;22;46475;-77
2022/10/26 11:09:42;;;;;;;;;1.25;1.25;;;;;19.83;63.81;101633.94;3044041;22;45252;-77
2022/10/26 11:11:15;;;;;;;;;3.00;2.00;;;;;19.84;64.00;101627.63;3043795;22;45268;-77
2022/10/26 11:12:40;;;;;;;;;1.50;1.50;;;;;19.85;64.24;101630.19;3043196;22;45502;-77
2022/10/26 11:14:04;;;;;;;;;4.00;2.00;;;;;19.85;64.00;101630.19;3043736;22;45432;-77
2022/10/26 11:15:20;;;;;;;;;2.00;2.00;;;;;19.89;63.59;101636.22;3027996;22;44593;-77
2022/10/26 11:16:41;;;;;;;;;2.00;2.00;;;;;19.91;63.94;101634.31;3033870;22;46467;-77
2022/10/26 11:17:59;;;;;;;;;1.25;1.25;;;;;19.92;63.86;101636.06;3027166;22;45247;-77
2022/10/26 11:19:25;;;;;;;;;1.75;1.75;;;;;19.95;63.77;101643.00;3018377;22;48112;-77
2022/10/26 11:20:41;;;;;;;;;2.50;2.00;;;;;19.95;63.34;101641.19;3035659;22;45289;-77
2022/10/26 11:21:54;;;;;;;;;2.00;2.00;;;;;19.96;63.80;101650.91;3043838;22;45188;-77
2022/10/26 11:23:13;;;;;;;;;2.25;2.25;;;;;19.88;63.63;101637.16;3043774;22;45117;-77
2022/10/26 11:24:26;;;;;;;;;2.00;2.00;;;;;19.89;64.14;101641.56;3042443;22;47179;-77
2022/10/26 11:25:47;;;;;;;;;2.50;2.50;;;;;19.89;64.05;101641.56;3043603;22;45322;-77
2022/10/26 11:27:29;;;;;;;;;4.00;2.25;;;;;19.93;64.62;101643.09;3044054;22;46339;-77
2022/10/26 11:28:42;;;;;;;;;4.75;2.25;;;;;19.98;64.05;101641.00;3027442;22;45317;-77
2022/10/26 11:30:09;;;;;;;;;2.75;1.75;;;;;20.02;64.10;101647.91;3033261;22;45492;-77
2022/10/26 11:31:24;;;;;;;;;4.00;2.50;;;;;20.05;63.59;101646.00;3044102;22;45361;-77
2022/10/26 11:32:46;;;;;;;;;2.50;1.25;;;;;20.07;64.19;101642.28;3044056;22;45140;-77
2022/10/26 11:34:13;;;;;;;;;3.75;2.25;;;;;20.09;63.90;101651.06;3044136;22;45324;-77
2022/10/26 11:35:31;;;;;;;;;2.75;2.00;;;;;20.08;63.62;101645.78;3042708;22;47077;-77
2022/10/26 11:36:47;;;;;;;;;0.50;0.50;;;;;20.08;63.53;101641.31;3043891;22;45288;-77
2022/10/26 11:38:17;;;;;;;;;1.50;1.50;;;;;20.08;63.62;101653.81;3027321;22;46362;-77
2022/10/26 11:39:46;;;;;;;;;2.25;2.00;;;;;20.08;63.86;101648.47;3037102;22;45325;-77
2022/10/26 11:41:04;;;;;;;;;1.25;1.25;;;;;20.06;63.32;101642.38;3044107;22;46052;-77
2022/10/26 11:42:30;;;;;;;;;3.00;2.00;;;;;20.08;63.39;101651.13;3044321;22;45247;-77
2022/10/26 11:43:45;;;;;;;;;3.00;2.00;;;;;20.08;63.73;101648.47;3042584;22;47285;-77
2022/10/26 11:45:01;;;;;;;;;2.50;2.00;;;;;20.07;63.65;101650.28;3043760;22;45503;-77
2022/10/26 11:46:27;;;;;;;;;4.00;2.00;;;;;20.03;63.50;101651.41;3027151;22;48042;-77
2022/10/26 11:47:56;;;;;;;;;2.00;1.00;;;;;20.04;63.66;101649.59;3035573;22;44667;-77
2022/10/26 11:49:18;;;;;;;;;3.00;3.00;;;;;20.01;63.56;101656.84;3043895;22;45460;-77
2022/10/26 11:50:33;;;;;;;;;3.75;2.00;;;;;20.06;63.92;101663.72;3043699;22;45209;-77
2022/10/26 11:51:53;;;;;;;;;4.00;1.00;;;;;20.06;63.59;101663.72;3040331;22;45322;-78
2022/10/26 11:53:16;;;;;;;;;2.25;2.00;;;;;20.04;63.64;101663.81;3026949;22;45609;-78
2022/10/26 11:54:34;;;;;;;;;2.00;2.00;;;;;20.02;63.46;101663.91;3019465;22;46946;-78
2022/10/26 11:55:50;;;;;;;;;1.50;1.50;;;;;20.02;63.81;101658.56;3018505;22;45304;-78
2022/10/26 11:57:03;;;;;;;;;1.75;1.75;;;;;20.07;64.08;101657.44;3033154;22;46315;-78
2022/10/26 11:58:14;;;;;;;;;2.00;2.00;;;;;20.11;63.52;101654.53;3043571;22;45104;-78
2022/10/26 11:59:29;;;;;;;;;1.00;1.00;;;;;20.12;63.87;101653.56;3043710;22;46261;-78